Time;durP1;ratioP1;P1;durP2;ratioP2;P2;SDS_P1;SDS_P2;PMS_P1;PMS_P2;Temp;Humidity;BMP_temperature;BMP_pressure;BME280_temperature;BME280_humidity;BME280_pressure;Samples;Min_cycle;Max_cycle;Signal;HPM_P1;HPM_P2
2024/04/05 05:02:12;;;;;;;20.00;7.33;;;;;;;;;;5228527;22;20493;-74
2024/04/05 05:04:38;;;;;;;15.60;6.23;;;;;;;;;;5012998;28;20414;-74
2024/04/05 05:07:04;;;;;;;16.67;7.30;;;;;;;;;;4995637;28;20410;-74
2024/04/05 05:09:30;;;;;;;17.77;7.70;;;;;;;;;;5013237;28;20921;-74
2024/04/05 05:11:56;;;;;;;13.70;7.63;;;;;;;;;;4998571;28;20758;-75
2024/04/05 05:14:23;;;;;;;20.20;7.60;;;;;;;;;;4993408;28;20563;-75
2024/04/05 05:16:49;;;;;;;14.47;6.33;;;;;;;;;;4993352;28;20475;-75
2024/04/05 05:19:15;;;;;;;28.33;8.43;;;;;;;;;;4993336;28;20411;-74
2024/04/05 05:21:41;;;;;;;14.13;6.47;;;;;;;;;;4993490;28;20439;-74
2024/04/05 05:24:07;;;;;;;16.80;6.80;;;;;;;;;;4993043;28;20732;-75
2024/04/05 05:26:35;;;;;;;16.40;6.47;;;;;;;;;;4993171;28;20925;-74
2024/04/05 05:29:02;;;;;;;17.13;6.40;;;;;;;;;;4993513;28;20763;-75
2024/04/05 05:31:28;;;;;;;17.30;5.97;;;;;;;;;;4993261;28;20922;-75
2024/04/05 05:33:54;;;;;;;20.83;6.23;;;;;;;;;;5006028;28;20425;-75
2024/04/05 05:36:20;;;;;;;12.57;5.70;;;;;;;;;;5011545;28;20461;-75
2024/04/05 05:38:46;;;;;;;8.80;5.30;;;;;;;;;;5012550;28;20415;-75
2024/04/05 05:41:11;;;;;;;9.87;5.43;;;;;;;;;;5012614;28;20437;-75
2024/04/05 05:43:38;;;;;;;16.17;6.40;;;;;;;;;;5013003;28;20414;-75
2024/04/05 05:46:05;;;;;;;22.20;5.80;;;;;;;;;;5012701;28;20402;-76
2024/04/05 05:48:31;;;;;;;17.00;6.03;;;;;;;;;;5012507;28;20909;-75
2024/04/05 05:50:57;;;;;;;11.07;5.23;;;;;;;;;;5012108;28;20526;-76
2024/04/05 05:53:23;;;;;;;18.83;5.33;;;;;;;;;;4994999;28;20433;-76
2024/04/05 05:55:52;;;;;;;12.53;5.03;;;;;;;;;;5011540;28;20696;-76
2024/04/05 05:58:18;;;;;;;11.30;5.43;;;;;;;;;;5012447;28;20426;-75
2024/04/05 06:00:45;;;;;;;13.63;5.40;;;;;;;;;;5012135;28;20449;-75
2024/04/05 06:03:11;;;;;;;15.73;4.83;;;;;;;;;;5012289;28;20444;-75
2024/04/05 06:05:37;;;;;;;11.60;5.90;;;;;;;;;;5012026;28;20430;-75
2024/04/05 06:08:03;;;;;;;9.93;5.33;;;;;;;;;;5012253;28;20625;-75
2024/04/05 06:10:29;;;;;;;11.77;5.47;;;;;;;;;;5012029;28;20820;-75
2024/04/05 06:12:56;;;;;;;10.47;4.43;;;;;;;;;;5012386;28;20406;-75
2024/04/05 06:15:22;;;;;;;10.83;4.77;;;;;;;;;;5011412;28;20902;-75
2024/04/05 06:17:48;;;;;;;15.37;5.20;;;;;;;;;;5012297;28;20405;-75
2024/04/05 06:20:17;;;;;;;12.77;3.90;;;;;;;;;;4994412;28;20756;-75
2024/04/05 06:22:43;;;;;;;10.80;4.20;;;;;;;;;;5011964;28;20434;-75
2024/04/05 06:25:10;;;;;;;8.07;4.10;;;;;;;;;;5011537;28;20903;-74
2024/04/05 06:27:36;;;;;;;4.80;3.07;;;;;;;;;;4994938;28;20421;-77
2024/04/05 06:30:02;;;;;;;6.13;3.30;;;;;;;;;;5012222;28;20441;-75
2024/04/05 06:32:30;;;;;;;11.13;2.77;;;;;;;;;;5012223;28;20438;-76
2024/04/05 06:34:56;;;;;;;7.20;3.20;;;;;;;;;;4994220;28;20422;-74
2024/04/05 06:37:22;;;;;;;8.17;3.07;;;;;;;;;;5009530;28;20547;-76
2024/04/05 06:39:53;;;;;;;5.37;3.07;;;;;;;;;;5012236;28;20414;-75
2024/04/05 06:42:19;;;;;;;5.60;3.40;;;;;;;;;;5012172;28;20476;-75
2024/04/05 06:44:45;;;;;;;7.70;3.70;;;;;;;;;;4987089;28;20449;-77
2024/04/05 06:47:12;;;;;;;7.60;3.90;;;;;;;;;;4974821;28;20435;-75
2024/04/05 06:49:38;;;;;;;20.53;4.20;;;;;;;;;;4993719;28;20426;-74
2024/04/05 06:52:08;;;;;;;7.07;3.83;;;;;;;;;;5013980;28;20441;-76
2024/04/05 06:54:46;;;;;;;12.53;3.90;;;;;;;;;;4999232;28;20504;-77
2024/04/05 06:57:12;;;;;;;11.33;4.10;;;;;;;;;;5010034;28;20466;-76
2024/04/05 06:59:38;;;;;;;10.63;4.40;;;;;;;;;;4994728;28;20913;-75
2024/04/05 07:02:04;;;;;;;8.80;4.20;;;;;;;;;;4995712;28;20451;-75
2024/04/05 07:04:33;;;;;;;11.53;4.10;;;;;;;;;;5005030;28;20460;-76
2024/04/05 07:06:59;;;;;;;9.17;4.90;;;;;;;;;;5009464;28;20855;-76
2024/04/05 07:09:26;;;;;;;16.30;4.50;;;;;;;;;;4996599;28;20411;-75
2024/04/05 07:11:52;;;;;;;11.97;4.17;;;;;;;;;;5007873;28;20438;-76
2024/04/05 07:14:18;;;;;;;10.87;4.23;;;;;;;;;;5015009;28;20472;-75
2024/04/05 07:16:45;;;;;;;13.43;4.40;;;;;;;;;;4991555;28;20473;-76
2024/04/05 07:19:11;;;;;;;15.60;4.50;;;;;;;;;;5004826;28;20449;-76
2024/04/05 07:21:37;;;;;;;13.07;4.47;;;;;;;;;;4994638;28;20991;-75
2024/04/05 07:24:06;;;;;;;11.10;4.13;;;;;;;;;;5014699;28;20428;-75
2024/04/05 07:26:33;;;;;;;7.93;3.93;;;;;;;;;;4995166;28;20433;-75
2024/04/05 07:28:59;;;;;;;10.17;4.30;;;;;;;;;;4995182;28;20736;-76
2024/04/05 07:31:25;;;;;;;17.17;5.53;;;;;;;;;;4987594;28;20470;-75
2024/04/05 07:33:52;;;;;;;13.50;3.90;;;;;;;;;;4978210;28;20446;-76
2024/04/05 07:36:18;;;;;;;17.50;4.03;;;;;;;;;;5006069;28;20458;-76
2024/04/05 07:38:44;;;;;;;9.70;3.80;;;;;;;;;;5009771;28;20828;-75
2024/04/05 07:41:10;;;;;;;7.23;3.73;;;;;;;;;;5013865;28;20445;-75
2024/04/05 07:43:36;;;;;;;19.87;4.13;;;;;;;;;;5014407;28;20502;-76
2024/04/05 07:46:02;;;;;;;8.90;3.70;;;;;;;;;;4993706;28;20414;-75
2024/04/05 07:48:28;;;;;;;12.07;4.10;;;;;;;;;;5014733;28;20484;-76
2024/04/05 07:50:59;;;;;;;17.77;4.20;;;;;;;;;;5008581;28;20474;-76
2024/04/05 07:53:26;;;;;;;13.73;4.00;;;;;;;;;;4995405;28;20506;-76
2024/04/05 07:55:52;;;;;;;10.03;4.03;;;;;;;;;;4995409;28;20562;-76
2024/04/05 07:58:19;;;;;;;12.37;4.97;;;;;;;;;;4978213;28;20434;-76
2024/04/05 08:00:45;;;;;;;9.90;3.63;;;;;;;;;;4994617;28;20512;-76
2024/04/05 08:03:11;;;;;;;14.23;4.93;;;;;;;;;;4994883;28;20780;-76
2024/04/05 08:05:37;;;;;;;7.43;3.50;;;;;;;;;;5002651;28;21547;-76
2024/04/05 08:08:03;;;;;;;21.77;4.13;;;;;;;;;;4995016;28;20866;-77
2024/04/05 08:10:32;;;;;;;9.47;3.70;;;;;;;;;;5008475;28;20429;-76
2024/04/05 08:12:58;;;;;;;6.77;3.30;;;;;;;;;;4993952;28;20430;-77
2024/04/05 08:15:25;;;;;;;8.67;3.50;;;;;;;;;;5009896;28;20414;-77
2024/04/05 08:17:51;;;;;;;9.33;4.00;;;;;;;;;;4994687;28;20469;-75
2024/04/05 08:20:18;;;;;;;11.00;2.90;;;;;;;;;;4994179;28;20494;-76
2024/04/05 08:22:44;;;;;;;6.37;3.10;;;;;;;;;;4994351;28;20906;-76
2024/04/05 08:25:10;;;;;;;8.03;3.43;;;;;;;;;;4994366;28;20534;-76
2024/04/05 08:27:36;;;;;;;7.07;3.37;;;;;;;;;;4994429;28;20790;-76
2024/04/05 08:30:02;;;;;;;6.87;2.77;;;;;;;;;;4976787;28;20992;-76
2024/04/05 08:32:28;;;;;;;7.97;3.70;;;;;;;;;;4994288;28;20458;-76
2024/04/05 08:34:55;;;;;;;8.70;3.27;;;;;;;;;;4976810;28;20435;-76
2024/04/05 08:37:21;;;;;;;9.20;3.83;;;;;;;;;;4994662;28;20466;-76
2024/04/05 08:39:47;;;;;;;6.33;3.20;;;;;;;;;;4994464;28;20411;-77
2024/04/05 08:42:14;;;;;;;7.40;3.33;;;;;;;;;;4994065;28;20430;-77
2024/04/05 08:44:43;;;;;;;9.70;3.70;;;;;;;;;;4994211;28;20462;-76
2024/04/05 08:47:09;;;;;;;8.57;3.23;;;;;;;;;;4957557;28;20847;-75
2024/04/05 08:49:35;;;;;;;10.83;3.40;;;;;;;;;;4975003;28;20416;-78
2024/04/05 08:52:02;;;;;;;10.63;3.20;;;;;;;;;;4974773;28;20942;-77
2024/04/05 08:54:29;;;;;;;10.50;3.20;;;;;;;;;;4980973;28;20453;-76
2024/04/05 08:56:58;;;;;;;3.90;2.30;;;;;;;;;;4976740;28;20513;-76
2024/04/05 08:59:28;;;;;;;11.60;2.77;;;;;;;;;;5012729;28;20479;-77
2024/04/05 09:01:54;;;;;;;12.80;3.50;;;;;;;;;;5005156;28;20449;-75
2024/04/05 09:04:20;;;;;;;10.13;2.40;;;;;;;;;;4992836;28;20444;-75
2024/04/05 09:06:46;;;;;;;5.83;2.60;;;;;;;;;;5012140;28;20512;-75
2024/04/05 09:09:13;;;;;;;8.67;2.17;;;;;;;;;;4994172;28;20415;-77
2024/04/05 09:11:39;;;;;;;5.13;2.40;;;;;;;;;;4976071;28;20430;-77
2024/04/05 09:14:05;;;;;;;6.03;2.10;;;;;;;;;;4978833;28;20561;-74
2024/04/05 09:16:31;;;;;;;9.87;3.20;;;;;;;;;;5012136;28;20453;-77
2024/04/05 09:19:08;;;;;;;3.83;2.53;;;;;;;;;;5013625;28;20410;-77
2024/04/05 09:21:34;;;;;;;18.40;2.77;;;;;;;;;;5012989;28;20417;-76
2024/04/05 09:24:02;;;;;;;3.43;1.90;;;;;;;;;;5012521;28;20409;-75
2024/04/05 09:26:28;;;;;;;4.80;2.40;;;;;;;;;;5012059;28;20410;-75
2024/04/05 09:29:03;;;;;;;7.83;2.57;;;;;;;;;;5012578;28;20414;-76
2024/04/05 09:31:29;;;;;;;5.13;2.20;;;;;;;;;;5012319;28;20449;-77
2024/04/05 09:34:08;;;;;;;4.40;2.33;;;;;;;;;;5008559;28;20414;-76
2024/04/05 09:36:34;;;;;;;4.53;2.17;;;;;;;;;;4990379;28;20469;-74
2024/04/05 09:39:02;;;;;;;3.67;1.97;;;;;;;;;;4986975;28;20431;-74
2024/04/05 09:41:29;;;;;;;6.80;2.17;;;;;;;;;;4993124;28;20841;-77
2024/04/05 09:43:57;;;;;;;4.33;2.20;;;;;;;;;;4979458;28;20477;-76
2024/04/05 09:46:24;;;;;;;6.70;2.10;;;;;;;;;;4975794;28;20526;-77
2024/04/05 09:48:50;;;;;;;3.57;2.00;;;;;;;;;;4976270;28;20470;-78
2024/04/05 09:51:19;;;;;;;3.50;1.73;;;;;;;;;;4994043;28;20528;-76
2024/04/05 09:53:45;;;;;;;3.53;1.77;;;;;;;;;;4993021;28;21093;-76
2024/04/05 09:56:14;;;;;;;5.53;1.90;;;;;;;;;;4992435;28;20528;-78
2024/04/05 09:58:40;;;;;;;2.10;1.60;;;;;;;;;;4992831;28;20490;-78
2024/04/05 10:01:08;;;;;;;5.90;1.70;;;;;;;;;;4975053;28;20446;-77
2024/04/05 10:03:35;;;;;;;6.43;2.00;;;;;;;;;;4993656;28;20422;-77
2024/04/05 10:06:17;;;;;;;6.70;1.90;;;;;;;;;;4992294;28;20407;-76
2024/04/05 10:08:44;;;;;;;3.30;1.70;;;;;;;;;;4976052;28;20431;-78
2024/04/05 10:11:13;;;;;;;5.90;1.70;;;;;;;;;;4992930;28;20945;-76
2024/04/05 10:13:40;;;;;;;5.03;1.83;;;;;;;;;;4992448;28;20605;-76
2024/04/05 10:16:06;;;;;;;4.47;1.80;;;;;;;;;;4992078;28;20989;-77
2024/04/05 10:18:39;;;;;;;5.00;1.83;;;;;;;;;;4974621;28;20798;-76
2024/04/05 10:21:09;;;;;;;2.73;1.63;;;;;;;;;;4992702;28;20427;-76
2024/04/05 10:23:44;;;;;;;4.00;1.90;;;;;;;;;;4992523;28;20417;-76
2024/04/05 10:26:13;;;;;;;6.73;1.90;;;;;;;;;;4994289;28;20414;-76
2024/04/05 10:28:39;;;;;;;3.80;1.50;;;;;;;;;;4977385;28;20946;-75
2024/04/05 10:31:14;;;;;;;3.47;2.00;;;;;;;;;;4996740;28;20768;-77
2024/04/05 10:33:46;;;;;;;5.17;1.83;;;;;;;;;;4996545;28;20418;-77
2024/04/05 10:36:13;;;;;;;3.40;2.03;;;;;;;;;;4996438;28;20490;-76
2024/04/05 10:38:41;;;;;;;4.50;1.90;;;;;;;;;;5002704;28;20483;-76
2024/04/05 10:41:08;;;;;;;4.43;1.80;;;;;;;;;;5016156;28;20457;-76
2024/04/05 10:43:34;;;;;;;4.03;1.80;;;;;;;;;;5015870;28;20402;-75
2024/04/05 10:46:01;;;;;;;4.73;2.00;;;;;;;;;;5015884;28;20433;-75
2024/04/05 10:48:27;;;;;;;4.77;1.90;;;;;;;;;;5011505;28;20498;-76
2024/04/05 10:50:53;;;;;;;5.87;1.83;;;;;;;;;;4978455;28;20982;-76
2024/04/05 10:53:20;;;;;;;2.60;1.23;;;;;;;;;;4978928;28;20577;-76
2024/04/05 10:55:47;;;;;;;3.13;1.80;;;;;;;;;;5000795;28;20461;-77
2024/04/05 10:58:14;;;;;;;3.00;1.60;;;;;;;;;;5015733;28;20476;-77
2024/04/05 11:00:40;;;;;;;3.37;1.70;;;;;;;;;;4998920;28;20539;-76
2024/04/05 11:03:08;;;;;;;5.83;1.70;;;;;;;;;;5015978;28;20781;-76
2024/04/05 11:05:34;;;;;;;2.77;1.73;;;;;;;;;;4987509;28;20422;-77
2024/04/05 11:08:01;;;;;;;4.37;1.90;;;;;;;;;;4996139;28;20440;-78
2024/04/05 11:10:34;;;;;;;5.17;2.07;;;;;;;;;;4996567;28;20418;-76
2024/04/05 11:13:01;;;;;;;3.10;1.70;;;;;;;;;;4999818;28;20924;-76
2024/04/05 11:15:27;;;;;;;1.90;1.27;;;;;;;;;;5014192;28;20416;-76
2024/04/05 11:18:05;;;;;;;5.93;1.77;;;;;;;;;;5008604;28;20529;-76
2024/04/05 11:20:31;;;;;;;3.20;1.50;;;;;;;;;;4995785;28;20950;-75
2024/04/05 11:23:04;;;;;;;3.63;1.60;;;;;;;;;;4979983;28;20434;-76
2024/04/05 11:25:31;;;;;;;3.30;1.40;;;;;;;;;;4996133;28;20431;-74
2024/04/05 11:27:57;;;;;;;2.53;1.70;;;;;;;;;;4995929;28;20426;-74
2024/04/05 11:30:24;;;;;;;4.90;1.60;;;;;;;;;;4998444;28;20438;-78
2024/04/05 11:32:51;;;;;;;2.37;1.70;;;;;;;;;;4980090;28;20441;-78
2024/04/05 11:35:17;;;;;;;3.00;1.93;;;;;;;;;;4977797;28;20438;-77
2024/04/05 11:37:47;;;;;;;4.90;1.80;;;;;;;;;;4991691;28;20562;-78
2024/04/05 11:40:14;;;;;;;3.67;1.70;;;;;;;;;;5009057;23;20493;-75
2024/04/05 11:42:40;;;;;;;4.87;2.00;;;;;;;;;;5013899;28;20775;-76
2024/04/05 11:45:07;;;;;;;3.30;1.70;;;;;;;;;;5011180;28;20880;-76
2024/04/05 11:47:33;;;;;;;2.17;1.40;;;;;;;;;;5014239;28;20978;-74
2024/04/05 11:50:00;;;;;;;2.80;1.60;;;;;;;;;;5014548;28;20486;-73
2024/04/05 11:52:26;;;;;;;3.10;1.27;;;;;;;;;;5022703;28;20406;-75
2024/04/05 11:54:52;;;;;;;2.00;1.27;;;;;;;;;;5022745;28;20522;-75
2024/04/05 11:57:18;;;;;;;8.10;1.57;;;;;;;;;;5032676;28;20465;-75
2024/04/05 11:59:44;;;;;;;5.07;1.80;;;;;;;;;;5032574;28;20496;-75
2024/04/05 12:02:11;;;;;;;4.87;1.80;;;;;;;;;;5032432;28;20413;-74
2024/04/05 12:04:37;;;;;;;8.37;1.67;;;;;;;;;;5012603;28;20418;-75
2024/04/05 12:07:12;;;;;;;4.00;1.80;;;;;;;;;;5033732;28;20423;-76
2024/04/05 12:09:38;;;;;;;3.90;1.67;;;;;;;;;;5032833;28;20419;-75
2024/04/05 12:12:07;;;;;;;5.97;1.53;;;;;;;;;;5031681;28;20429;-75
2024/04/05 12:14:33;;;;;;;6.10;1.60;;;;;;;;;;5033053;28;20491;-75
2024/04/05 12:17:00;;;;;;;1.93;1.37;;;;;;;;;;5032791;28;20952;-75
2024/04/05 12:19:26;;;;;;;4.30;1.97;;;;;;;;;;5028845;28;20904;-75
2024/04/05 12:21:52;;;;;;;3.63;1.80;;;;;;;;;;5030391;28;20479;-74
2024/04/05 12:24:18;;;;;;;4.20;1.60;;;;;;;;;;5022014;28;20448;-75
2024/04/05 12:26:44;;;;;;;9.33;2.00;;;;;;;;;;5032564;28;20425;-73
2024/04/05 12:29:10;;;;;;;3.10;1.70;;;;;;;;;;5031775;28;20430;-75
2024/04/05 12:31:36;;;;;;;2.23;1.40;;;;;;;;;;5030642;28;20425;-75
2024/04/05 12:34:02;;;;;;;4.07;1.60;;;;;;;;;;5028752;28;20583;-74
2024/04/05 12:36:28;;;;;;;2.47;1.43;;;;;;;;;;5030948;28;20601;-78
2024/04/05 12:38:56;;;;;;;3.43;1.80;;;;;;;;;;5031844;28;20499;-76
2024/04/05 12:41:25;;;;;;;3.77;1.73;;;;;;;;;;5032515;28;20449;-77
2024/04/05 12:43:52;;;;;;;3.17;1.60;;;;;;;;;;5032402;28;20739;-76
2024/04/05 12:46:18;;;;;;;4.50;1.70;;;;;;;;;;5030531;28;20931;-76
2024/04/05 12:48:44;;;;;;;7.80;1.60;;;;;;;;;;5032559;28;20406;-76
2024/04/05 12:51:10;;;;;;;4.50;1.70;;;;;;;;;;5031092;28;20517;-76
2024/04/05 12:53:37;;;;;;;4.33;1.30;;;;;;;;;;5032154;28;20892;-77
2024/04/05 12:56:04;;;;;;;2.40;1.37;;;;;;;;;;5024096;28;21025;-77
2024/04/05 12:58:33;;;;;;;3.80;1.37;;;;;;;;;;5032096;28;20471;-77
2024/04/05 13:01:03;;;;;;;5.23;1.20;;;;;;;;;;5029474;28;20532;-76
2024/04/05 13:03:32;;;;;;;4.80;1.60;;;;;;;;;;5032007;28;20908;-77
2024/04/05 13:06:04;;;;;;;3.20;1.60;;;;;;;;;;5032644;28;20417;-76
2024/04/05 13:08:30;;;;;;;2.13;1.67;;;;;;;;;;5033459;28;20414;-79
2024/04/05 13:10:57;;;;;;;5.13;1.50;;;;;;;;;;5026606;28;20432;-78
2024/04/05 13:13:23;;;;;;;2.13;1.53;;;;;;;;;;5035506;28;20413;-79
2024/04/05 13:15:49;;;;;;;3.47;1.77;;;;;;;;;;5024453;28;20496;-79
2024/04/05 13:18:15;;;;;;;2.37;1.50;;;;;;;;;;5033331;28;20459;-78
2024/04/05 13:20:42;;;;;;;4.80;1.70;;;;;;;;;;5022566;28;20471;-77
2024/04/05 13:23:08;;;;;;;7.60;2.70;;;;;;;;;;5026715;28;20789;-72
2024/04/05 13:25:34;;;;;;;5.87;1.70;;;;;;;;;;5027836;28;20484;-72
2024/04/05 13:28:00;;;;;;;7.80;2.10;;;;;;;;;;5028880;28;20547;-76
2024/04/05 13:30:26;;;;;;;17.07;3.30;;;;;;;;;;5030808;28;20441;-75
2024/04/05 13:32:56;;;;;;;53.00;4.70;;;;;;;;;;5017734;28;20419;-75
2024/04/05 13:35:28;;;;;;;6.77;2.63;;;;;;;;;;5010206;28;20433;-72
2024/04/05 13:37:53;;;;;;;5.60;2.10;;;;;;;;;;5027475;28;20456;-73
2024/04/05 13:40:19;;;;;;;7.90;1.90;;;;;;;;;;5031453;28;20966;-71
2024/04/05 13:42:47;;;;;;;4.90;1.93;;;;;;;;;;5030796;28;20412;-72
2024/04/05 13:45:14;;;;;;;13.13;3.60;;;;;;;;;;5026507;28;20968;-73
2024/04/05 13:47:40;;;;;;;7.60;1.90;;;;;;;;;;5034136;28;20416;-78
2024/04/05 13:50:07;;;;;;;2.90;1.77;;;;;;;;;;5036720;28;20433;-77
2024/04/05 13:52:33;;;;;;;4.23;2.17;;;;;;;;;;5037141;28;20415;-77
2024/04/05 13:54:59;;;;;;;3.83;1.60;;;;;;;;;;5036091;28;20417;-77
2024/04/05 13:57:25;;;;;;;3.50;1.83;;;;;;;;;;5036143;28;20469;-78
2024/04/05 13:59:51;;;;;;;3.53;1.67;;;;;;;;;;5051845;28;20511;-77
2024/04/05 14:02:17;;;;;;;6.90;2.00;;;;;;;;;;5051481;28;20796;-77
2024/04/05 14:04:44;;;;;;;6.43;1.70;;;;;;;;;;5042691;28;20487;-77
2024/04/05 14:07:10;;;;;;;3.13;1.70;;;;;;;;;;5063443;28;20796;-77
2024/04/05 14:09:39;;;;;;;5.20;1.90;;;;;;;;;;5048548;28;20915;-77
2024/04/05 14:12:05;;;;;;;3.30;1.70;;;;;;;;;;5048034;28;20420;-77
2024/04/05 14:14:33;;;;;;;4.73;1.93;;;;;;;;;;5043582;28;20480;-76
2024/04/05 14:16:59;;;;;;;4.37;1.60;;;;;;;;;;5037230;28;20460;-77
2024/04/05 14:19:25;;;;;;;4.77;2.30;;;;;;;;;;5043712;28;20437;-76
2024/04/05 14:21:51;;;;;;;2.90;1.70;;;;;;;;;;5047072;28;20425;-76
2024/04/05 14:24:17;;;;;;;2.07;1.50;;;;;;;;;;5048304;28;20408;-77
2024/04/05 14:26:43;;;;;;;6.47;1.30;;;;;;;;;;5042419;28;20417;-77
2024/04/05 14:29:09;;;;;;;5.50;1.90;;;;;;;;;;5038019;28;20425;-77
2024/04/05 14:31:35;;;;;;;6.60;2.00;;;;;;;;;;5047447;28;20455;-76
2024/04/05 14:34:01;;;;;;;4.40;2.00;;;;;;;;;;5064932;28;20448;-76
2024/04/05 14:36:27;;;;;;;3.63;1.70;;;;;;;;;;5044177;28;20465;-76
2024/04/05 14:38:53;;;;;;;3.30;2.27;;;;;;;;;;5043703;28;20946;-76
2024/04/05 14:41:19;;;;;;;3.17;1.80;;;;;;;;;;5045119;28;20822;-76
2024/04/05 14:43:46;;;;;;;3.47;1.77;;;;;;;;;;5042629;28;20475;-77
2024/04/05 14:46:13;;;;;;;2.10;1.43;;;;;;;;;;5039367;28;20429;-77
2024/04/05 14:48:39;;;;;;;3.57;1.63;;;;;;;;;;5042594;28;20409;-77
2024/04/05 14:51:08;;;;;;;5.90;2.23;;;;;;;;;;5038899;28;20502;-77
2024/04/05 14:53:34;;;;;;;4.47;1.73;;;;;;;;;;5037548;28;20775;-77
2024/04/05 14:56:02;;;;;;;3.33;1.80;;;;;;;;;;5036700;28;20518;-77
2024/04/05 14:58:28;;;;;;;5.40;2.00;;;;;;;;;;5044548;28;20428;-77
2024/04/05 15:00:58;;;;;;;3.50;2.07;;;;;;;;;;5036945;28;20445;-77
2024/04/05 15:03:24;;;;;;;3.27;1.70;;;;;;;;;;5036178;28;20409;-77
2024/04/05 15:06:05;;;;;;;2.70;1.90;;;;;;;;;;5035403;28;20935;-77
2024/04/05 15:08:32;;;;;;;5.33;2.00;;;;;;;;;;5045983;28;20417;-77
2024/04/05 15:10:59;;;;;;;1.97;1.70;;;;;;;;;;5035592;28;20443;-77
2024/04/05 15:13:25;;;;;;;3.97;1.87;;;;;;;;;;5031178;28;20475;-76
2024/04/05 15:15:52;;;;;;;6.70;1.77;;;;;;;;;;5028350;28;20420;-76
2024/04/05 15:18:18;;;;;;;2.80;1.80;;;;;;;;;;5019680;28;20508;-76
2024/04/05 15:20:44;;;;;;;3.10;1.87;;;;;;;;;;5030839;28;20444;-75
2024/04/05 15:23:10;;;;;;;5.83;2.07;;;;;;;;;;5024601;28;20413;-77
2024/04/05 15:25:37;;;;;;;2.90;1.60;;;;;;;;;;5025567;28;20429;-78
2024/04/05 15:28:04;;;;;;;2.97;1.70;;;;;;;;;;5030330;28;20957;-77
2024/04/05 15:30:30;;;;;;;3.90;2.20;;;;;;;;;;5016640;28;20438;-76
2024/04/05 15:32:56;;;;;;;7.63;2.50;;;;;;;;;;5024375;28;20490;-77
2024/04/05 15:35:22;;;;;;;8.40;2.13;;;;;;;;;;5035335;28;20421;-76
2024/04/05 15:37:51;;;;;;;2.70;1.73;;;;;;;;;;5050392;28;20465;-76
2024/04/05 15:40:18;;;;;;;2.70;1.60;;;;;;;;;;5036594;28;20583;-77
2024/04/05 15:42:44;;;;;;;3.50;1.80;;;;;;;;;;5050042;28;20420;-76
2024/04/05 15:45:11;;;;;;;3.93;2.00;;;;;;;;;;5033887;28;20813;-77
2024/04/05 15:47:37;;;;;;;4.50;1.87;;;;;;;;;;5050053;28;20417;-77
2024/04/05 15:50:03;;;;;;;4.83;1.90;;;;;;;;;;5039107;28;20437;-77
2024/04/05 15:52:29;;;;;;;6.87;2.20;;;;;;;;;;5035937;28;20448;-77
2024/04/05 15:54:55;;;;;;;5.40;1.97;;;;;;;;;;5034207;28;20449;-76
2024/04/05 15:57:21;;;;;;;5.50;2.23;;;;;;;;;;5017694;28;20535;-77
2024/04/05 15:59:47;;;;;;;2.20;1.80;;;;;;;;;;5016582;28;20421;-78
2024/04/05 16:02:14;;;;;;;2.80;1.93;;;;;;;;;;5030455;28;20980;-76
2024/04/05 16:04:43;;;;;;;4.13;2.20;;;;;;;;;;5038219;28;20924;-78
2024/04/05 16:07:09;;;;;;;3.50;1.73;;;;;;;;;;5037167;28;20457;-77
2024/04/05 16:09:35;;;;;;;3.37;1.67;;;;;;;;;;5060055;28;20445;-75
2024/04/05 16:12:01;;;;;;;2.53;1.60;;;;;;;;;;5053740;28;20413;-75
2024/04/05 16:14:27;;;;;;;18.63;2.23;;;;;;;;;;5050642;28;20413;-78
2024/04/05 16:16:53;;;;;;;3.27;2.03;;;;;;;;;;5028852;28;20547;-76
2024/04/05 16:19:20;;;;;;;7.93;1.87;;;;;;;;;;5046693;28;20410;-75
2024/04/05 16:21:46;;;;;;;9.73;1.87;;;;;;;;;;5038015;28;20512;-76
2024/04/05 16:24:12;;;;;;;4.83;2.37;;;;;;;;;;5038004;28;20428;-76
2024/04/05 16:26:38;;;;;;;2.87;2.40;;;;;;;;;;5043009;28;20428;-76
2024/04/05 16:29:04;;;;;;;4.33;2.07;;;;;;;;;;5036340;28;20432;-75
2024/04/05 16:31:32;;;;;;;4.37;2.30;;;;;;;;;;5035078;28;20471;-76
2024/04/05 16:33:59;;;;;;;7.93;2.70;;;;;;;;;;5035666;28;20417;-76
2024/04/05 16:36:25;;;;;;;3.63;1.77;;;;;;;;;;5035110;28;20540;-79
2024/04/05 16:38:51;;;;;;;6.00;2.00;;;;;;;;;;5044643;28;20448;-76
2024/04/05 16:41:18;;;;;;;5.27;2.60;;;;;;;;;;5042874;28;20452;-76
2024/04/05 16:43:44;;;;;;;9.40;2.57;;;;;;;;;;5033800;28;20755;-76
2024/04/05 16:46:11;;;;;;;4.20;1.90;;;;;;;;;;5021243;28;20945;-75
2024/04/05 16:48:38;;;;;;;3.33;1.90;;;;;;;;;;5017773;28;20419;-75
2024/04/05 16:51:07;;;;;;;4.07;1.90;;;;;;;;;;5016209;28;20476;-76
2024/04/05 16:53:38;;;;;;;2.97;2.00;;;;;;;;;;5026072;28;20420;-76
2024/04/05 16:56:04;;;;;;;4.13;1.70;;;;;;;;;;5034737;28;21218;-77
2024/04/05 16:58:31;;;;;;;2.50;1.53;;;;;;;;;;5033818;28;20925;-76
2024/04/05 17:00:57;;;;;;;3.47;1.80;;;;;;;;;;5034660;28;20525;-76
2024/04/05 17:03:24;;;;;;;6.30;2.00;;;;;;;;;;5034219;28;20849;-76
2024/04/05 17:05:50;;;;;;;5.43;2.17;;;;;;;;;;5033610;28;20599;-75
2024/04/05 17:08:16;;;;;;;11.07;2.60;;;;;;;;;;5033187;28;20417;-75
2024/04/05 17:10:44;;;;;;;6.60;2.40;;;;;;;;;;5034062;28;20587;-76
2024/04/05 17:13:21;;;;;;;5.13;3.63;;;;;;;;;;5034955;28;20412;-77
2024/04/05 17:15:47;;;;;;;6.77;2.07;;;;;;;;;;5028036;28;20427;-76
2024/04/05 17:18:13;;;;;;;4.27;2.13;;;;;;;;;;5034750;28;20500;-76
2024/04/05 17:20:39;;;;;;;5.20;1.90;;;;;;;;;;5033506;28;20429;-76
2024/04/05 17:23:05;;;;;;;4.90;2.13;;;;;;;;;;5033032;28;20870;-76
2024/04/05 17:25:31;;;;;;;4.50;2.13;;;;;;;;;;5032662;28;20624;-76
2024/04/05 17:27:57;;;;;;;7.77;3.70;;;;;;;;;;5033685;28;20921;-77
2024/04/05 17:30:23;;;;;;;7.00;3.10;;;;;;;;;;5049006;28;20449;-77
2024/04/05 17:32:49;;;;;;;5.07;2.30;;;;;;;;;;5033706;28;20471;-77
2024/04/05 17:35:15;;;;;;;9.40;3.37;;;;;;;;;;5033299;28;20425;-77
2024/04/05 17:37:42;;;;;;;6.20;3.33;;;;;;;;;;5032087;28;20492;-76
2024/04/05 17:40:08;;;;;;;4.60;2.83;;;;;;;;;;5033366;28;20453;-76
2024/04/05 17:42:36;;;;;;;7.83;3.60;;;;;;;;;;5022482;28;20410;-76
2024/04/05 17:45:02;;;;;;;8.17;3.63;;;;;;;;;;5017791;28;20488;-76
2024/04/05 17:47:28;;;;;;;8.10;4.37;;;;;;;;;;5032663;28;20497;-76
2024/04/05 17:49:54;;;;;;;9.87;3.60;;;;;;;;;;5032066;28;20548;-77
2024/04/05 17:52:19;;;;;;;11.93;4.30;;;;;;;;;;5032596;28;20421;-75
2024/04/05 17:54:45;;;;;;;7.57;3.30;;;;;;;;;;5032442;28;20413;-77
2024/04/05 17:57:11;;;;;;;7.10;3.67;;;;;;;;;;5047585;28;20464;-77
2024/04/05 17:59:37;;;;;;;9.10;4.07;;;;;;;;;;5032009;28;20467;-76
2024/04/05 18:02:03;;;;;;;10.30;5.40;;;;;;;;;;5032487;28;20463;-76
2024/04/05 18:04:32;;;;;;;10.47;4.30;;;;;;;;;;5031734;28;20802;-77
2024/04/05 18:06:59;;;;;;;15.53;5.97;;;;;;;;;;5031953;28;20449;-76
2024/04/05 18:09:25;;;;;;;23.30;11.33;;;;;;;;;;5029608;28;20781;-77
2024/04/05 18:11:51;;;;;;;18.20;8.07;;;;;;;;;;5031639;28;20503;-77
2024/04/05 18:14:17;;;;;;;30.30;13.80;;;;;;;;;;5024434;28;20418;-77
2024/04/05 18:16:43;;;;;;;31.20;14.13;;;;;;;;;;5031091;28;20523;-77
2024/04/05 18:19:08;;;;;;;20.23;9.87;;;;;;;;;;5031905;28;20968;-78
2024/04/05 18:21:34;;;;;;;16.83;7.00;;;;;;;;;;5031816;28;20808;-77
2024/04/05 18:24:00;;;;;;;14.83;6.87;;;;;;;;;;5032111;28;20781;-77
2024/04/05 18:26:26;;;;;;;12.20;4.70;;;;;;;;;;5031341;28;20432;-77
2024/04/05 18:28:58;;;;;;;19.80;7.47;;;;;;;;;;5032096;28;20429;-77
2024/04/05 18:31:27;;;;;;;9.20;5.30;;;;;;;;;;5031059;28;20493;-77
2024/04/05 18:33:53;;;;;;;15.13;5.90;;;;;;;;;;5022634;28;20429;-77
2024/04/05 18:36:19;;;;;;;8.97;4.53;;;;;;;;;;5046910;28;20493;-76
2024/04/05 18:38:51;;;;;;;11.53;5.20;;;;;;;;;;5031530;28;20420;-76
2024/04/05 18:41:17;;;;;;;8.63;3.80;;;;;;;;;;5031650;28;20449;-76
2024/04/05 18:43:43;;;;;;;7.30;4.27;;;;;;;;;;5031976;28;20456;-77
2024/04/05 18:46:10;;;;;;;10.47;5.27;;;;;;;;;;5031145;28;20471;-77
2024/04/05 18:48:36;;;;;;;7.37;4.10;;;;;;;;;;5031931;28;20947;-77
2024/04/05 18:51:03;;;;;;;10.60;4.23;;;;;;;;;;5033847;28;20491;-77
2024/04/05 18:53:29;;;;;;;11.43;4.30;;;;;;;;;;5026670;28;20421;-77
2024/04/05 18:55:57;;;;;;;14.37;8.30;;;;;;;;;;5020919;28;20951;-76
2024/04/05 18:58:23;;;;;;;13.73;6.57;;;;;;;;;;5034257;28;20437;-77
2024/04/05 19:00:50;;;;;;;14.33;6.50;;;;;;;;;;5034934;28;20475;-77
2024/04/05 19:03:36;;;;;;;12.07;6.33;;;;;;;;;;5035167;28;20420;-77
2024/04/05 19:06:05;;;;;;;12.40;6.20;;;;;;;;;;5034360;28;20408;-78
2024/04/05 19:08:31;;;;;;;12.40;6.43;;;;;;;;;;5033004;28;20428;-78
2024/04/05 19:10:57;;;;;;;10.67;5.90;;;;;;;;;;5032862;28;20465;-77
2024/04/05 19:13:26;;;;;;;6.20;4.20;;;;;;;;;;5032814;28;20502;-77
2024/04/05 19:15:52;;;;;;;17.40;6.63;;;;;;;;;;5033790;28;20412;-76
2024/04/05 19:18:19;;;;;;;18.07;7.70;;;;;;;;;;5034516;28;20413;-77
2024/04/05 19:20:45;;;;;;;15.67;7.70;;;;;;;;;;5034334;28;20441;-77
2024/04/05 19:23:12;;;;;;;12.97;7.10;;;;;;;;;;5035887;28;20474;-77
2024/04/05 19:25:38;;;;;;;15.37;7.23;;;;;;;;;;5034149;28;20425;-76
2024/04/05 19:28:04;;;;;;;18.47;8.00;;;;;;;;;;5033573;28;20412;-76
2024/04/05 19:30:32;;;;;;;18.03;6.80;;;;;;;;;;5042719;28;20457;-78
2024/04/05 19:32:58;;;;;;;15.47;6.93;;;;;;;;;;5036314;28;20413;-77
2024/04/05 19:35:24;;;;;;;14.27;7.57;;;;;;;;;;5036027;28;20413;-76
2024/04/05 19:37:50;;;;;;;17.90;8.00;;;;;;;;;;5033320;28;20502;-77